createdAt,value
2022-12-09T00:03:07.882Z,99240.28
2022-12-09T00:08:09.526Z,99244.41
2022-12-09T00:13:11.185Z,99229.94
2022-12-09T00:18:12.474Z,99225.50
2022-12-09T00:23:14.030Z,99207.16
2022-12-09T00:28:15.446Z,99224.44
2022-12-09T00:33:16.964Z,99219.22
2022-12-09T00:38:18.365Z,99223.53
2022-12-09T00:43:19.721Z,99216.13
2022-12-09T00:48:21.010Z,99217.78
2022-12-09T00:53:22.911Z,99205.06
2022-12-09T00:58:24.975Z,99217.94
2022-12-09T01:03:26.704Z,99196.03
2022-12-09T01:08:28.495Z,99218.66
2022-12-09T01:13:30.248Z,99216.75
2022-12-09T01:18:31.633Z,99216.00
2022-12-09T01:23:33.540Z,99209.31
2022-12-09T01:28:36.503Z,99219.56
2022-12-09T01:33:38.330Z,99220.41
2022-12-09T01:38:40.100Z,99218.00
2022-12-09T01:43:42.150Z,99196.34
2022-12-09T01:48:46.515Z,99206.66
2022-12-09T01:53:50.359Z,99202.56
2022-12-09T01:58:53.747Z,99207.53
2022-12-09T02:03:55.479Z,99201.53
2022-12-09T02:08:58.672Z,99210.00
2022-12-09T02:14:15.885Z,99205.66
2022-12-09T02:19:38.771Z,99195.25
2022-12-09T02:25:10.840Z,99189.16
2022-12-09T02:30:19.561Z,99180.59
2022-12-09T02:35:27.772Z,99181.06
2022-12-09T02:40:54.266Z,99174.97
2022-12-09T02:45:58.100Z,99174.97
2022-12-09T02:51:04.386Z,99167.38
2022-12-09T02:56:07.643Z,99169.47
2022-12-09T03:01:23.113Z,99150.78
2022-12-09T03:06:30.968Z,99139.97
2022-12-09T03:11:33.584Z,99146.81
2022-12-09T03:16:43.239Z,99148.72
2022-12-09T03:21:48.198Z,99118.56
2022-12-09T03:26:51.642Z,99131.56
2022-12-09T03:31:57.060Z,99129.16
2022-12-09T03:37:02.024Z,99126.72
2022-12-09T03:42:14.699Z,99124.84
2022-12-09T03:47:16.366Z,99107.78
2022-12-09T03:52:32.028Z,99113.78
2022-12-09T03:57:37.959Z,99102.53
2022-12-09T04:02:39.883Z,99114.53
2022-12-09T04:07:41.876Z,99119.06
2022-12-09T04:12:43.306Z,99114.00
2022-12-09T04:17:44.781Z,99101.78
2022-12-09T04:22:46.313Z,99069.09
2022-12-09T04:27:47.984Z,99107.78
2022-12-09T04:32:49.504Z,99112.44
2022-12-09T04:37:51.079Z,99111.38
2022-12-09T04:42:52.824Z,99114.34
2022-12-09T04:47:54.409Z,99111.81
2022-12-09T04:52:55.974Z,99113.09
2022-12-09T04:57:57.772Z,99104.97
2022-12-09T05:02:59.618Z,99097.81
2022-12-09T05:08:01.390Z,99108.50
2022-12-09T05:13:03.350Z,99109.03
2022-12-09T05:18:05.258Z,99104.53
2022-12-09T05:23:09.588Z,99099.94
2022-12-09T05:28:11.734Z,99098.88
2022-12-09T05:33:13.296Z,99093.66
2022-12-09T05:38:15.176Z,99036.25
2022-12-09T05:43:17.322Z,99081.44
2022-12-09T05:48:18.850Z,99091.75
2022-12-09T05:53:20.398Z,99076.56
2022-12-09T05:58:22.280Z,99067.94
2022-12-09T06:03:24.560Z,99067.47
2022-12-09T06:08:26.867Z,99061.84
2022-12-09T06:13:28.756Z,99065.31
2022-12-09T06:18:30.499Z,99041.41
2022-12-09T06:23:32.144Z,99054.88
2022-12-09T06:28:34.170Z,99054.34
2022-12-09T06:39:00.422Z,99064.34
2022-12-09T06:44:04.935Z,99064.72
2022-12-09T06:49:06.627Z,99068.53
2022-12-09T06:54:09.730Z,99080.78
2022-12-09T06:59:11.888Z,99070.81
2022-12-09T07:04:15.172Z,99078.47
2022-12-09T07:09:21.452Z,99076.56
2022-12-09T07:14:23.559Z,99084.53
2022-12-09T07:19:25.491Z,99075.50
2022-12-09T07:24:27.241Z,99068.53
2022-12-09T07:29:31.294Z,99063.25
2022-12-09T07:34:33.273Z,99074.84
2022-12-09T07:39:34.813Z,99077.72
2022-12-09T07:44:36.488Z,99080.09
2022-12-09T07:49:38.240Z,99074.13
2022-12-09T07:54:39.804Z,99050.47
2022-12-09T07:59:41.563Z,99074.69
2022-12-09T08:04:43.194Z,99068.88
2022-12-09T08:09:44.904Z,99064.81
2022-12-09T08:14:46.387Z,99064.59
2022-12-09T08:19:49.863Z,99075.13
2022-12-09T08:24:51.626Z,99066.91
2022-12-09T08:29:53.568Z,99072.06
2022-12-09T08:34:56.177Z,99071.84
2022-12-09T08:39:58.391Z,99068.38
2022-12-09T08:45:02.372Z,99064.59
2022-12-09T08:50:05.273Z,99059.78
2022-12-09T08:55:07.121Z,99048.22
2022-12-09T09:00:09.500Z,99064.59
2022-12-09T09:05:11.588Z,99037.97
2022-12-09T09:10:13.603Z,99056.53
2022-12-09T09:15:15.941Z,99067.31
2022-12-09T09:20:18.102Z,99066.09
2022-12-09T09:25:19.882Z,99068.09
2022-12-09T09:30:21.906Z,99034.63
2022-12-09T09:35:23.441Z,99049.31
2022-12-09T09:40:27.554Z,99057.19
2022-12-09T09:45:29.424Z,99041.44
2022-12-09T09:50:50.408Z,99052.31
2022-12-09T09:55:59.055Z,99046.59
2022-12-09T10:01:10.494Z,99022.78
2022-12-09T10:06:35.055Z,99025.94
2022-12-09T10:11:56.380Z,99022.44
2022-12-09T10:17:07.171Z,99024.88
2022-12-09T10:22:14.535Z,99024.63
2022-12-09T10:27:31.350Z,99023.09
2022-12-09T10:32:35.619Z,99014.94
2022-12-09T10:37:37.544Z,99012.53
2022-12-09T10:43:16.060Z,99013.75
2022-12-09T10:48:34.185Z,99017.97
2022-12-09T10:53:37.013Z,99020.78
2022-12-09T10:58:38.672Z,99014.63
2022-12-09T11:03:46.946Z,99004.88
2022-12-09T11:08:58.040Z,98988.75
2022-12-09T11:14:00.239Z,98997.72
2022-12-09T11:19:02.404Z,98995.69
2022-12-09T11:24:04.917Z,98986.91
2022-12-09T11:29:16.456Z,98980.75
2022-12-09T11:34:24.231Z,98973.41
2022-12-09T11:39:28.916Z,98980.09
2022-12-09T11:44:31.462Z,98981.53
2022-12-09T11:49:50.312Z,98978.19
2022-12-09T11:55:05.854Z,98967.78
2022-12-09T12:00:21.646Z,98955.22
2022-12-09T12:05:37.557Z,98949.84
2022-12-09T12:10:50.625Z,98953.34
2022-12-09T12:16:13.691Z,98943.91
2022-12-09T12:21:33.222Z,98939.50
2022-12-09T12:26:49.684Z,98939.06
2022-12-09T12:32:00.124Z,98932.59
2022-12-09T12:37:33.976Z,98935.00
2022-12-09T12:42:35.307Z,98932.63
2022-12-09T12:48:08.179Z,98926.81
2022-12-09T12:54:00.198Z,98928.50
2022-12-09T12:59:14.191Z,98928.81
2022-12-09T13:04:36.543Z,98911.69
2022-12-09T13:09:53.290Z,98927.75
2022-12-09T13:14:55.316Z,98928.66
2022-12-09T13:20:01.006Z,98928.47
2022-12-09T13:25:18.290Z,98938.53
2022-12-09T13:30:23.676Z,98907.78
2022-12-09T13:35:37.606Z,98912.69
2022-12-09T13:40:39.009Z,98927.78
2022-12-09T13:45:43.429Z,98917.91
2022-12-09T13:51:00.125Z,98922.72
2022-12-09T13:56:18.576Z,98906.81
2022-12-09T14:01:22.659Z,98920.72
2022-12-09T14:06:31.076Z,98923.69
2022-12-09T14:11:43.102Z,98920.75
2022-12-09T14:16:44.423Z,98922.75
2022-12-09T14:22:22.004Z,98942.69
2022-12-09T14:27:28.382Z,98943.84
2022-12-09T14:32:36.513Z,98933.03
2022-12-09T14:37:53.237Z,98933.38
2022-12-09T14:43:13.511Z,98941.44
2022-12-09T14:48:21.163Z,98937.66
2022-12-09T14:53:24.839Z,98948.31
2022-12-09T14:58:27.551Z,98942.56
2022-12-09T15:03:36.861Z,98958.16
2022-12-09T15:08:44.052Z,98960.59
2022-12-09T15:13:48.058Z,98955.22
2022-12-09T15:18:51.229Z,98936.16
2022-12-09T15:23:52.856Z,98950.53
2022-12-09T15:28:59.512Z,98957.69
2022-12-09T15:34:11.348Z,98955.03
2022-12-09T15:39:21.032Z,98969.44
2022-12-09T15:44:24.889Z,98975.66
2022-12-09T15:49:33.384Z,98968.19
2022-12-09T15:54:39.230Z,98960.75
2022-12-09T15:59:55.464Z,98984.84
2022-12-09T16:05:01.852Z,98975.31
2022-12-09T16:10:16.061Z,98975.22
2022-12-09T16:16:03.637Z,98997.75
2022-12-09T16:21:27.636Z,98994.75
2022-12-09T16:26:32.547Z,99005.22
2022-12-09T16:31:34.098Z,98998.66
2022-12-09T16:36:35.648Z,98997.72
2022-12-09T16:41:52.045Z,98999.00
2022-12-09T16:47:10.693Z,98993.22
2022-12-09T16:52:15.150Z,98997.44
2022-12-09T16:57:18.501Z,99005.75
2022-12-09T17:02:31.862Z,99006.69
2022-12-09T17:07:33.681Z,99005.84
2022-12-09T17:12:35.140Z,99014.06
2022-12-09T17:17:36.895Z,99008.91
2022-12-09T17:22:38.398Z,99006.97
2022-12-09T17:27:39.774Z,99001.91
2022-12-09T17:32:41.259Z,99013.19
2022-12-09T17:37:42.882Z,98999.84
2022-12-09T17:42:44.388Z,98999.41
2022-12-09T17:47:47.958Z,99007.25
2022-12-09T17:52:49.495Z,99020.69
2022-12-09T17:57:54.138Z,98993.97
2022-12-09T18:02:58.091Z,99031.97
2022-12-09T18:07:59.548Z,99038.00
2022-12-09T18:13:00.979Z,99043.31
2022-12-09T18:18:02.312Z,99042.66
2022-12-09T18:23:03.698Z,99043.31
2022-12-09T18:28:05.499Z,99044.97
2022-12-09T18:33:07.048Z,99048.00
2022-12-09T18:38:12.669Z,99057.84
2022-12-09T18:43:14.389Z,99054.28
2022-12-09T18:48:15.758Z,99053.97
2022-12-09T18:53:17.290Z,99053.47
2022-12-09T18:58:31.350Z,99048.22
2022-12-09T19:03:40.147Z,99061.03
2022-12-09T19:08:41.593Z,99064.22
2022-12-09T19:13:45.102Z,99048.88
2022-12-09T19:18:47.312Z,99071.59
2022-12-09T19:23:49.124Z,99062.75
2022-12-09T19:28:58.505Z,99062.97
2022-12-09T19:34:02.273Z,99078.13
2022-12-09T19:39:06.048Z,99076.03
2022-12-09T19:44:08.259Z,99080.56
2022-12-09T19:49:14.554Z,99082.53
2022-12-09T19:54:16.818Z,99079.38
2022-12-09T19:59:18.153Z,99075.41
2022-12-09T20:09:42.933Z,99073.72
2022-12-09T20:14:44.328Z,99077.78
2022-12-09T20:19:46.607Z,99076.94
2022-12-09T20:24:47.990Z,99070.75
2022-12-09T20:29:49.299Z,99082.09
2022-12-09T20:34:51.293Z,99035.19
2022-12-09T20:39:52.940Z,99082.75
2022-12-09T20:44:54.301Z,99091.38
2022-12-09T20:49:55.702Z,99096.22
2022-12-09T20:54:57.139Z,99102.22
2022-12-09T20:59:58.459Z,99089.91
2022-12-09T21:05:00.102Z,99098.75
2022-12-09T21:10:01.572Z,99107.78
2022-12-09T21:15:03.501Z,99104.53
2022-12-09T21:20:05.788Z,99089.47
2022-12-09T21:25:07.815Z,99094.13
2022-12-09T21:30:10.028Z,99106.31
2022-12-09T21:35:11.526Z,99107.34
2022-12-09T21:40:13.166Z,99105.38
2022-12-09T21:45:14.561Z,99109.16
2022-12-09T21:50:15.921Z,99113.28
2022-12-09T21:55:17.297Z,99112.19
2022-12-09T22:00:18.975Z,99116.22
2022-12-09T22:05:20.375Z,99110.75
2022-12-09T22:10:21.699Z,99117.88
2022-12-09T22:15:23.243Z,99130.72
2022-12-09T22:25:45.930Z,99142.50
2022-12-09T22:30:47.339Z,99142.50
2022-12-09T22:35:49.170Z,99147.34
2022-12-09T22:40:50.522Z,99151.53
2022-12-09T22:45:51.916Z,99157.13
2022-12-09T22:50:53.412Z,99160.91
2022-12-09T22:55:54.931Z,99158.78
2022-12-09T23:00:56.779Z,99155.41
2022-12-09T23:06:01.339Z,99113.22
2022-12-09T23:11:06.768Z,99153.50
2022-12-09T23:16:12.245Z,99127.94
2022-12-09T23:21:19.557Z,99148.03
2022-12-09T23:26:22.659Z,99148.31
2022-12-09T23:31:29.048Z,99145.88
2022-12-09T23:36:33.573Z,99149.81
2022-12-09T23:41:35.420Z,99160.81
2022-12-09T23:46:37.537Z,99160.06
2022-12-09T23:51:41.204Z,99165.81
2022-12-09T23:56:49.905Z,99156.84
